createdAt,value
2018-06-19T00:00:43.139Z,70.88
2018-06-19T00:03:12.266Z,71.85
2018-06-19T00:05:41.386Z,72.66
2018-06-19T00:08:10.677Z,72.33
2018-06-19T00:10:39.785Z,71.79
2018-06-19T00:13:08.904Z,72.74
2018-06-19T00:15:38.049Z,72.91
2018-06-19T00:18:14.388Z,72.92
2018-06-19T00:20:43.520Z,72.59
2018-06-19T00:23:12.693Z,73.11
2018-06-19T00:25:41.805Z,73.11
2018-06-19T00:28:10.936Z,73.01
2018-06-19T00:30:40.073Z,72.86
2018-06-19T00:33:09.185Z,73.48
2018-06-19T00:35:38.297Z,72.96
2018-06-19T00:38:07.430Z,73.33
2018-06-19T00:40:36.544Z,73.37
2018-06-19T00:43:05.836Z,72.83
2018-06-19T00:45:34.961Z,73.12
2018-06-19T00:48:04.097Z,73.20
2018-06-19T00:50:33.293Z,73.97
2018-06-19T00:53:02.417Z,74.24
2018-06-19T00:55:31.566Z,74.52
2018-06-19T00:58:00.741Z,73.97
2018-06-19T01:00:29.860Z,74.81
2018-06-19T01:02:58.992Z,75.10
2018-06-19T01:05:28.104Z,74.50
2018-06-19T01:07:57.242Z,75.29
2018-06-19T01:10:26.388Z,75.20
2018-06-19T01:12:55.513Z,75.70
2018-06-19T01:15:24.634Z,75.74
2018-06-19T01:17:53.757Z,75.59
2018-06-19T01:20:23.125Z,75.09
2018-06-19T01:22:52.246Z,75.25
2018-06-19T01:25:21.369Z,75.67
2018-06-19T01:27:50.586Z,75.77
2018-06-19T01:30:22.681Z,75.85
2018-06-19T01:32:51.817Z,75.82
2018-06-19T01:35:20.929Z,75.89
2018-06-19T01:37:50.045Z,75.67
2018-06-19T01:40:19.181Z,75.66
2018-06-19T01:42:48.311Z,76.08
2018-06-19T01:45:17.427Z,75.29
2018-06-19T01:47:46.553Z,74.61
2018-06-19T01:50:15.699Z,74.08
2018-06-19T01:52:44.809Z,74.58
2018-06-19T01:55:13.938Z,74.46
2018-06-19T01:57:43.089Z,74.22
2018-06-19T02:00:12.216Z,73.65
2018-06-19T02:02:41.353Z,73.73
2018-06-19T02:05:10.473Z,73.17
2018-06-19T02:07:39.601Z,73.14
2018-06-19T02:10:08.721Z,73.80
2018-06-19T02:12:37.845Z,73.81
2018-06-19T02:15:07.086Z,73.05
2018-06-19T02:17:36.207Z,72.79
2018-06-19T02:20:06.206Z,72.91
2018-06-19T02:22:35.338Z,72.77
2018-06-19T02:25:04.481Z,72.66
2018-06-19T02:27:33.822Z,72.66
2018-06-19T02:30:02.950Z,72.23
2018-06-19T02:32:32.065Z,71.93
2018-06-19T02:35:01.195Z,72.08
2018-06-19T02:37:30.322Z,72.29
2018-06-19T02:39:59.449Z,72.46
2018-06-19T02:42:28.709Z,72.31
2018-06-19T02:44:57.837Z,72.17
2018-06-19T02:47:26.969Z,72.16
2018-06-19T02:49:56.105Z,73.01
2018-06-19T02:52:25.249Z,72.47
2018-06-19T02:54:54.526Z,72.61
2018-06-19T02:57:23.705Z,73.00
2018-06-19T02:59:52.879Z,73.51
2018-06-19T03:02:22.282Z,72.12
2018-06-19T03:04:51.409Z,72.46
2018-06-19T03:07:20.533Z,73.18
2018-06-19T03:09:49.774Z,73.57
2018-06-19T03:12:18.889Z,73.44
2018-06-19T03:14:48.006Z,73.50
2018-06-19T03:17:18.125Z,73.56
2018-06-19T03:19:47.242Z,73.65
2018-06-19T03:22:16.378Z,71.64
2018-06-19T03:24:45.515Z,72.35
2018-06-19T03:27:14.636Z,72.36
2018-06-19T03:29:43.753Z,72.15
2018-06-19T03:32:12.889Z,72.26
2018-06-19T03:34:42.270Z,72.17
2018-06-19T03:37:11.385Z,72.23
2018-06-19T03:39:40.505Z,72.34
2018-06-19T03:42:09.632Z,71.78
2018-06-19T03:44:38.753Z,71.85
2018-06-19T03:47:07.933Z,71.67
2018-06-19T03:49:37.081Z,71.90
2018-06-19T03:52:06.461Z,72.49
2018-06-19T03:54:35.585Z,72.37
2018-06-19T03:57:04.825Z,72.08
2018-06-19T03:59:34.009Z,72.19
2018-06-19T04:02:03.200Z,72.60
2018-06-19T04:04:32.334Z,71.95
2018-06-19T04:07:01.449Z,70.51
2018-06-19T04:09:30.576Z,70.82
2018-06-19T04:11:59.813Z,70.14
2018-06-19T04:14:28.953Z,70.32
2018-06-19T04:16:58.073Z,73.75
2018-06-19T04:19:27.243Z,72.35
2018-06-19T04:21:56.504Z,70.20
2018-06-19T04:24:25.622Z,70.46
2018-06-19T04:26:55.007Z,71.10
2018-06-19T04:29:24.141Z,69.75
2018-06-19T04:31:53.273Z,69.57
2018-06-19T04:34:22.405Z,69.01
2018-06-19T04:36:51.525Z,67.73
2018-06-19T04:39:20.670Z,67.67
2018-06-19T04:41:49.861Z,67.43
2018-06-19T04:44:18.977Z,67.86
2018-06-19T04:46:47.994Z,67.32
2018-06-19T04:49:17.108Z,68.27
2018-06-19T04:51:46.222Z,66.93
2018-06-19T04:54:15.346Z,66.58
2018-06-19T04:56:44.551Z,66.08
2018-06-19T04:59:13.679Z,66.38
2018-06-19T05:01:42.809Z,66.20
2018-06-19T05:04:12.053Z,66.84
2018-06-19T05:06:41.189Z,66.10
2018-06-19T05:09:12.789Z,67.20
2018-06-19T05:11:43.085Z,67.07
2018-06-19T05:14:12.499Z,65.51
2018-06-19T05:16:42.220Z,65.62
2018-06-19T05:19:11.737Z,66.47
2018-06-19T05:21:40.639Z,65.66
2018-06-19T05:24:09.866Z,65.53
2018-06-19T05:26:39.238Z,66.17
2018-06-19T05:29:08.345Z,66.32
2018-06-19T05:31:37.465Z,65.65
2018-06-19T05:34:06.622Z,65.55
2018-06-19T05:36:35.775Z,65.35
2018-06-19T05:39:08.947Z,64.04
2018-06-19T05:41:38.417Z,63.86
2018-06-19T05:44:08.124Z,64.38
2018-06-19T05:46:37.672Z,64.16
2018-06-19T05:49:07.057Z,63.57
2018-06-19T05:51:36.177Z,64.56
2018-06-19T05:54:05.301Z,63.92
2018-06-19T05:56:34.439Z,63.45
2018-06-19T05:59:03.565Z,63.34
2018-06-19T06:01:32.811Z,61.73
2018-06-19T06:04:01.913Z,62.24
2018-06-19T06:06:31.144Z,61.59
2018-06-19T06:09:00.253Z,61.44
2018-06-19T06:11:29.722Z,61.26
2018-06-19T06:13:58.845Z,60.64
2018-06-19T06:16:28.026Z,59.01
2018-06-19T06:18:57.108Z,59.60
2018-06-19T06:21:26.237Z,60.72
2018-06-19T06:23:55.373Z,60.67
2018-06-19T06:26:24.516Z,60.90
2018-06-19T06:28:53.686Z,62.39
2018-06-19T06:31:23.049Z,62.12
2018-06-19T06:33:52.131Z,61.75
2018-06-19T06:36:21.276Z,60.39
2018-06-19T06:38:50.425Z,60.64
2018-06-19T06:41:19.537Z,61.14
2018-06-19T06:43:49.069Z,60.51
2018-06-19T06:46:18.211Z,60.47
2018-06-19T06:48:47.328Z,59.22
2018-06-19T06:51:16.461Z,59.42
2018-06-19T06:53:45.577Z,57.46
2018-06-19T06:56:14.701Z,58.71
2018-06-19T06:58:43.822Z,58.34
2018-06-19T07:01:12.947Z,58.14
2018-06-19T07:03:41.948Z,57.35
2018-06-19T07:06:10.852Z,57.65
2018-06-19T07:08:39.986Z,58.73
2018-06-19T07:11:09.128Z,58.27
2018-06-19T07:13:38.270Z,57.11
2018-06-19T07:16:07.397Z,57.49
2018-06-19T07:18:36.588Z,56.83
2018-06-19T07:21:05.765Z,57.40
2018-06-19T07:23:34.877Z,57.70
2018-06-19T07:26:04.039Z,57.35
2018-06-19T07:28:33.125Z,56.29
2018-06-19T07:31:02.333Z,56.57
2018-06-19T07:33:31.488Z,54.59
2018-06-19T07:36:00.635Z,55.15
2018-06-19T07:38:29.753Z,54.58
2018-06-19T07:40:59.096Z,56.03
2018-06-19T07:43:28.218Z,56.08
2018-06-19T07:45:57.341Z,56.32
2018-06-19T07:48:26.506Z,56.11
2018-06-19T07:50:55.632Z,55.78
2018-06-19T07:53:24.772Z,56.12
2018-06-19T07:55:53.906Z,54.27
2018-06-19T07:58:23.036Z,54.46
2018-06-19T08:00:52.161Z,54.42
2018-06-19T08:03:21.309Z,54.31
2018-06-19T08:05:50.441Z,54.75
2018-06-19T08:08:19.580Z,54.51
2018-06-19T08:10:48.706Z,53.64
2018-06-19T08:13:17.855Z,53.56
2018-06-19T08:15:46.977Z,55.95
2018-06-19T08:18:16.108Z,54.49
2018-06-19T08:20:45.250Z,51.65
2018-06-19T08:23:14.405Z,52.27
2018-06-19T08:25:44.386Z,53.48
2018-06-19T08:28:13.620Z,51.89
2018-06-19T08:30:42.753Z,51.72
2018-06-19T08:33:11.889Z,53.21
2018-06-19T08:35:41.006Z,54.06
2018-06-19T08:38:10.158Z,54.21
2018-06-19T08:40:39.309Z,53.91
2018-06-19T08:43:08.425Z,51.71
2018-06-19T08:45:37.575Z,53.12
2018-06-19T08:48:06.775Z,53.97
2018-06-19T08:50:35.833Z,54.28
2018-06-19T08:53:04.961Z,52.01
2018-06-19T08:55:34.090Z,53.34
2018-06-19T08:58:03.357Z,53.80
2018-06-19T09:00:32.482Z,55.79
2018-06-19T09:03:01.631Z,52.23
2018-06-19T09:05:30.996Z,51.87
2018-06-19T09:08:00.139Z,52.92
2018-06-19T09:10:29.264Z,53.24
2018-06-19T09:12:58.593Z,51.95
2018-06-19T09:15:27.718Z,53.91
2018-06-19T09:17:56.918Z,52.50
2018-06-19T09:20:26.052Z,51.40
2018-06-19T09:22:55.173Z,54.79
2018-06-19T09:25:24.305Z,52.36
2018-06-19T09:27:53.682Z,51.97
2018-06-19T09:30:22.817Z,53.02
2018-06-19T09:32:51.937Z,52.71
2018-06-19T09:35:21.080Z,54.28
2018-06-19T09:37:50.274Z,53.06
2018-06-19T09:40:19.665Z,53.80
2018-06-19T09:42:48.801Z,54.22
2018-06-19T09:45:17.911Z,55.23
2018-06-19T09:47:47.053Z,53.43
2018-06-19T09:50:16.178Z,54.19
2018-06-19T09:52:45.337Z,53.47
2018-06-19T09:55:14.464Z,55.30
2018-06-19T09:57:43.580Z,51.27
2018-06-19T10:00:16.833Z,51.76
2018-06-19T10:02:45.973Z,52.62
2018-06-19T10:05:15.112Z,51.58
2018-06-19T10:07:44.246Z,53.32
2018-06-19T10:10:13.625Z,52.79
2018-06-19T10:12:42.767Z,52.94
2018-06-19T10:15:11.886Z,52.71
2018-06-19T10:17:41.013Z,51.79
2018-06-19T10:20:10.170Z,53.24
2018-06-19T10:22:39.382Z,52.29
2018-06-19T10:25:08.682Z,52.50
2018-06-19T10:27:37.797Z,52.85
2018-06-19T10:30:06.913Z,53.27
2018-06-19T10:32:36.070Z,53.56
2018-06-19T10:35:05.291Z,53.04
2018-06-19T10:37:34.385Z,52.47
2018-06-19T10:40:03.570Z,51.55
2018-06-19T10:42:32.693Z,51.86
2018-06-19T10:45:01.825Z,53.33
2018-06-19T10:47:30.953Z,54.29
2018-06-19T10:50:00.082Z,53.87
2018-06-19T10:52:29.218Z,53.78
2018-06-19T10:54:58.345Z,54.63
2018-06-19T10:57:27.476Z,50.45
2018-06-19T10:59:56.864Z,50.46
2018-06-19T11:02:25.990Z,51.43
2018-06-19T11:04:55.166Z,51.55
2018-06-19T11:07:30.920Z,49.30
2018-06-19T11:10:01.625Z,51.04
2018-06-19T11:12:30.749Z,50.88
2018-06-19T11:14:59.873Z,49.54
2018-06-19T11:17:28.997Z,49.71
2018-06-19T11:19:58.140Z,49.56
2018-06-19T11:22:27.253Z,50.83
2018-06-19T11:24:56.918Z,50.10
2018-06-19T11:27:26.194Z,51.71
2018-06-19T11:29:55.341Z,51.58
2018-06-19T11:32:24.449Z,51.37
2018-06-19T11:34:53.629Z,50.19
2018-06-19T11:37:22.779Z,51.03
2018-06-19T11:39:51.908Z,52.06
2018-06-19T11:42:21.045Z,53.70
2018-06-19T11:44:50.165Z,55.06
2018-06-19T11:47:19.290Z,53.59
2018-06-19T11:49:48.469Z,53.88
2018-06-19T11:52:17.613Z,53.10
2018-06-19T11:54:46.972Z,50.82
2018-06-19T11:57:16.122Z,54.08
2018-06-19T11:59:45.278Z,54.33
2018-06-19T12:02:14.170Z,52.60
2018-06-19T12:04:43.314Z,53.85
2018-06-19T12:07:12.449Z,53.55
2018-06-19T12:09:41.569Z,53.75
2018-06-19T12:12:10.694Z,55.14
2018-06-19T12:14:39.810Z,52.95
2018-06-19T12:17:08.946Z,54.04
2018-06-19T12:19:38.082Z,53.95
2018-06-19T12:22:07.257Z,53.43
2018-06-19T12:24:36.377Z,52.90
2018-06-19T12:27:06.333Z,50.87
2018-06-19T12:29:35.555Z,50.44
2018-06-19T12:32:04.861Z,50.81
2018-06-19T12:34:33.999Z,51.21
2018-06-19T12:37:03.121Z,47.67
2018-06-19T12:39:32.273Z,49.30
2018-06-19T12:42:01.418Z,50.64
2018-06-19T12:44:30.550Z,50.58
2018-06-19T12:46:59.677Z,52.71
2018-06-19T12:49:46.105Z,53.69
2018-06-19T12:52:32.445Z,50.65
2018-06-19T12:56:22.502Z,49.67
2018-06-19T12:58:51.626Z,49.98
2018-06-19T13:01:20.757Z,51.03
2018-06-19T13:04:07.085Z,49.26
2018-06-19T13:06:37.263Z,52.62
2018-06-19T13:09:08.629Z,48.53
2018-06-19T13:11:37.819Z,47.25
2018-06-19T13:14:24.399Z,46.44
2018-06-19T13:17:10.833Z,46.71
2018-06-19T13:19:57.434Z,47.71
2018-06-19T13:22:26.728Z,48.63
2018-06-19T13:24:55.949Z,50.09
2018-06-19T13:27:25.074Z,50.09
2018-06-19T13:30:11.789Z,49.37
2018-06-19T13:32:40.993Z,48.72
2018-06-19T13:35:10.121Z,50.25
2018-06-19T13:37:39.246Z,51.07
2018-06-19T13:41:24.777Z,52.60
2018-06-19T13:44:12.821Z,50.04
2018-06-19T13:46:42.306Z,50.28
2018-06-19T13:49:11.453Z,49.26
2018-06-19T13:51:40.585Z,47.20
2018-06-19T13:54:09.730Z,48.01
2018-06-19T13:57:08.185Z,48.60
2018-06-19T13:59:37.517Z,49.28
2018-06-19T14:02:06.861Z,49.23
2018-06-19T14:04:36.012Z,48.93
2018-06-19T14:07:06.319Z,49.57
2018-06-19T14:09:52.721Z,49.69
2018-06-19T14:13:13.839Z,50.30
2018-06-19T14:15:49.983Z,50.65
2018-06-19T14:18:20.741Z,51.14
2018-06-19T14:20:49.860Z,52.13
2018-06-19T14:23:18.989Z,51.57
2018-06-19T14:25:48.129Z,47.58
2018-06-19T14:28:17.257Z,48.96
2018-06-19T14:30:46.389Z,50.91
2018-06-19T14:33:15.521Z,49.43
2018-06-19T14:35:44.682Z,48.27
2018-06-19T14:38:13.824Z,49.91
2018-06-19T14:40:42.945Z,49.68
2018-06-19T14:43:12.075Z,50.41
2018-06-19T14:45:41.215Z,51.74
2018-06-19T14:48:10.321Z,51.63
2018-06-19T14:50:39.501Z,50.46
2018-06-19T14:53:08.609Z,50.95
2018-06-19T14:55:37.737Z,51.63
2018-06-19T14:58:06.891Z,51.73
2018-06-19T15:00:36.021Z,50.90
2018-06-19T15:03:05.158Z,48.67
2018-06-19T15:05:34.373Z,49.58
2018-06-19T15:08:03.509Z,49.71
2018-06-19T15:10:32.629Z,50.34
2018-06-19T15:13:01.991Z,48.64
2018-06-19T15:15:31.092Z,49.63
2018-06-19T15:18:00.209Z,50.23
2018-06-19T15:20:29.476Z,50.63
2018-06-19T15:22:58.588Z,50.77
2018-06-19T15:25:27.760Z,49.95
2018-06-19T15:27:56.873Z,50.92
2018-06-19T15:30:25.993Z,51.09
2018-06-19T15:32:55.125Z,50.89
2018-06-19T15:35:24.273Z,49.99
2018-06-19T15:37:53.410Z,50.48
2018-06-19T15:40:22.551Z,52.81
2018-06-19T15:42:51.673Z,51.84
2018-06-19T15:45:21.017Z,52.31
2018-06-19T15:47:50.277Z,52.30
2018-06-19T15:50:19.392Z,51.11
2018-06-19T15:52:48.512Z,49.33
2018-06-19T15:55:17.636Z,50.53
2018-06-19T15:57:46.759Z,49.47
2018-06-19T16:00:15.889Z,49.91
2018-06-19T16:02:45.010Z,49.21
2018-06-19T16:05:14.140Z,49.02
2018-06-19T16:07:48.917Z,49.53
2018-06-19T16:10:18.068Z,49.19
2018-06-19T16:12:47.256Z,50.32
2018-06-19T16:15:16.401Z,49.51
2018-06-19T16:17:45.552Z,48.86
2018-06-19T16:20:14.676Z,49.29
2018-06-19T16:22:43.804Z,48.94
2018-06-19T16:25:12.941Z,49.69
2018-06-19T16:27:42.069Z,50.22
2018-06-19T16:30:11.199Z,50.11
2018-06-19T16:32:40.319Z,49.26
2018-06-19T16:35:09.484Z,50.34
2018-06-19T16:37:38.662Z,49.59
2018-06-19T16:40:07.826Z,51.13
2018-06-19T16:42:36.956Z,51.47
2018-06-19T16:45:06.173Z,50.83
2018-06-19T16:47:35.075Z,52.46
2018-06-19T16:50:04.353Z,51.28
2018-06-19T16:52:33.477Z,51.88
2018-06-19T16:55:03.137Z,51.43
2018-06-19T16:57:32.772Z,51.09
2018-06-19T17:00:02.266Z,51.21
2018-06-19T17:02:31.658Z,52.34
2018-06-19T17:05:00.896Z,51.56
2018-06-19T17:07:30.430Z,52.38
2018-06-19T17:09:59.573Z,51.82
2018-06-19T17:12:28.759Z,51.99
2018-06-19T17:14:57.886Z,52.22
2018-06-19T17:17:27.061Z,52.50
2018-06-19T17:19:56.266Z,51.66
2018-06-19T17:22:25.452Z,52.05
2018-06-19T17:24:54.578Z,51.94
2018-06-19T17:27:23.797Z,52.72
2018-06-19T17:29:52.989Z,51.84
2018-06-19T17:32:21.936Z,51.40
2018-06-19T17:34:50.940Z,52.16
2018-06-19T17:37:20.129Z,52.57
2018-06-19T17:39:49.337Z,52.38
2018-06-19T17:42:18.482Z,53.53
2018-06-19T17:44:47.620Z,53.41
2018-06-19T17:47:16.761Z,54.42
2018-06-19T17:49:45.905Z,54.03
2018-06-19T17:52:15.207Z,54.36
2018-06-19T17:54:44.365Z,53.64
2018-06-19T17:57:13.476Z,53.73
2018-06-19T17:59:42.752Z,54.50
2018-06-19T18:02:11.881Z,55.62
2018-06-19T18:04:41.056Z,54.53
2018-06-19T18:07:10.189Z,53.75
2018-06-19T18:09:39.325Z,54.16
2018-06-19T18:12:08.716Z,54.65
2018-06-19T18:14:37.853Z,54.17
2018-06-19T18:17:06.973Z,53.98
2018-06-19T18:19:36.118Z,54.70
2018-06-19T18:22:05.285Z,53.65
2018-06-19T18:24:34.414Z,54.67
2018-06-19T18:27:03.573Z,54.73
2018-06-19T18:29:32.717Z,54.34
2018-06-19T18:32:01.862Z,55.12
2018-06-19T18:34:30.993Z,54.93
2018-06-19T18:37:00.149Z,54.50
2018-06-19T18:39:29.368Z,55.79
2018-06-19T18:41:58.509Z,55.48
2018-06-19T18:44:27.693Z,55.10
2018-06-19T18:46:56.967Z,56.03
2018-06-19T18:49:26.889Z,56.98
2018-06-19T18:51:56.173Z,57.31
2018-06-19T18:54:25.513Z,57.05
2018-06-19T18:56:54.669Z,56.62
2018-06-19T18:59:23.889Z,57.56
2018-06-19T19:01:53.104Z,58.68
2018-06-19T19:04:22.260Z,59.27
2018-06-19T19:06:51.431Z,59.65
2018-06-19T19:09:20.557Z,60.69
2018-06-19T19:11:49.785Z,60.60
2018-06-19T19:14:18.946Z,60.75
2018-06-19T19:16:53.345Z,60.94
2018-06-19T19:19:24.514Z,61.52
2018-06-19T19:21:54.572Z,61.01
2018-06-19T19:24:23.819Z,62.22
2018-06-19T19:26:58.196Z,62.54
2018-06-19T19:29:32.700Z,62.83
2018-06-19T19:32:01.831Z,63.40
2018-06-19T19:34:31.181Z,63.06
2018-06-19T19:37:05.873Z,63.44
2018-06-19T19:39:35.105Z,63.25
2018-06-19T19:42:04.241Z,64.50
2018-06-19T19:44:33.403Z,64.11
2018-06-19T19:47:07.894Z,64.27
2018-06-19T19:49:37.131Z,63.24
2018-06-19T19:52:06.255Z,64.53
2018-06-19T19:54:35.654Z,65.60
2018-06-19T19:57:10.105Z,64.77
2018-06-19T19:59:39.259Z,64.96
2018-06-19T20:02:08.485Z,64.99
2018-06-19T20:04:37.633Z,65.03
2018-06-19T20:07:06.817Z,65.24
2018-06-19T20:09:35.991Z,65.27
2018-06-19T20:12:05.253Z,66.04
2018-06-19T20:14:34.394Z,66.13
2018-06-19T20:17:03.616Z,65.77
2018-06-19T20:19:32.711Z,66.10
2018-06-19T20:22:01.898Z,65.59
2018-06-19T20:24:31.017Z,66.11
2018-06-19T20:27:00.418Z,66.07
2018-06-19T20:29:29.613Z,66.02
2018-06-19T20:31:58.822Z,66.96
2018-06-19T20:34:28.027Z,66.26
2018-06-19T20:36:57.155Z,66.22
2018-06-19T20:39:26.338Z,67.43
2018-06-19T20:41:55.796Z,66.27
2018-06-19T20:44:24.965Z,67.03
2018-06-19T20:46:54.093Z,66.76
2018-06-19T20:49:23.441Z,66.92
2018-06-19T20:51:52.749Z,67.63
2018-06-19T20:54:22.021Z,66.62
2018-06-19T20:56:51.190Z,66.92
2018-06-19T20:59:20.459Z,67.90
2018-06-19T21:01:49.745Z,66.63
2018-06-19T21:04:18.933Z,64.94
2018-06-19T21:06:48.157Z,65.35
2018-06-19T21:09:17.362Z,63.89
2018-06-19T21:11:46.598Z,65.43
2018-06-19T21:14:15.774Z,65.14
2018-06-19T21:16:44.953Z,65.42
2018-06-19T21:19:14.434Z,64.87
2018-06-19T21:21:43.732Z,65.42
2018-06-19T21:24:12.970Z,66.01
2018-06-19T21:26:42.214Z,65.59
2018-06-19T21:29:11.402Z,66.02
2018-06-19T21:31:40.565Z,65.72
2018-06-19T21:34:09.740Z,65.67
2018-06-19T21:36:38.990Z,65.29
2018-06-19T21:39:10.118Z,64.54
2018-06-19T21:41:39.249Z,65.33
2018-06-19T21:44:08.453Z,64.83
2018-06-19T21:46:37.589Z,65.43
2018-06-19T21:49:06.701Z,65.80
2018-06-19T21:51:35.921Z,64.96
2018-06-19T21:54:05.049Z,65.80
2018-06-19T21:56:34.390Z,66.28
2018-06-19T21:59:03.509Z,65.48
2018-06-19T22:01:32.625Z,66.85
2018-06-19T22:04:01.760Z,67.25
2018-06-19T22:06:30.889Z,66.86
2018-06-19T22:09:01.037Z,66.53
2018-06-19T22:11:30.159Z,66.38
2018-06-19T22:13:59.400Z,66.88
2018-06-19T22:16:28.518Z,66.78
2018-06-19T22:18:57.645Z,66.89
2018-06-19T22:21:26.787Z,67.07
2018-06-19T22:23:56.077Z,67.04
2018-06-19T22:26:25.197Z,67.27
2018-06-19T22:28:54.370Z,67.45
2018-06-19T22:31:23.597Z,68.01
2018-06-19T22:33:52.713Z,67.16
2018-06-19T22:36:21.828Z,67.04
2018-06-19T22:38:50.945Z,67.82
2018-06-19T22:41:20.082Z,68.42
2018-06-19T22:43:49.213Z,67.76
2018-06-19T22:46:18.333Z,68.11
2018-06-19T22:48:47.496Z,67.89
2018-06-19T22:51:16.642Z,68.63
2018-06-19T22:53:45.772Z,68.16
2018-06-19T22:56:14.908Z,67.64
2018-06-19T22:58:44.039Z,67.95
2018-06-19T23:01:13.329Z,68.92
2018-06-19T23:03:42.447Z,68.65
2018-06-19T23:06:11.558Z,69.03
2018-06-19T23:08:40.681Z,68.86
2018-06-19T23:11:09.825Z,69.36
2018-06-19T23:13:38.958Z,69.22
2018-06-19T23:16:08.085Z,69.06
2018-06-19T23:18:37.218Z,69.03
2018-06-19T23:21:06.353Z,68.12
2018-06-19T23:23:35.526Z,68.87
2018-06-19T23:26:04.657Z,68.92
2018-06-19T23:28:33.790Z,68.73
2018-06-19T23:31:02.905Z,69.10
2018-06-19T23:33:32.037Z,69.48
2018-06-19T23:36:01.189Z,69.67
2018-06-19T23:38:30.326Z,69.41
2018-06-19T23:40:59.457Z,69.34
2018-06-19T23:43:28.593Z,69.11
2018-06-19T23:45:57.717Z,69.45
2018-06-19T23:48:26.881Z,69.94
2018-06-19T23:50:56.043Z,70.53
2018-06-19T23:53:25.166Z,69.74
2018-06-19T23:55:54.289Z,69.96
2018-06-19T23:58:23.408Z,69.39
